sensor_id;sensor_type;location;lat;lon;timestamp;P1;durP1;ratioP1;P2;durP2;ratioP2
4307;SDS011;2167;53.448;9.984;2022-10-16T00:01:20;3.73;;;2.90;;
4307;SDS011;2167;53.448;9.984;2022-10-16T00:03:49;4.83;;;3.00;;
4307;SDS011;2167;53.448;9.984;2022-10-16T00:06:16;4.30;;;3.00;;
4307;SDS011;2167;53.448;9.984;2022-10-16T00:08:42;5.13;;;2.50;;
4307;SDS011;2167;53.448;9.984;2022-10-16T00:11:13;10.00;;;2.70;;
4307;SDS011;2167;53.448;9.984;2022-10-16T00:13:40;3.33;;;2.70;;
4307;SDS011;2167;53.448;9.984;2022-10-16T00:16:06;4.50;;;2.33;;
4307;SDS011;2167;53.448;9.984;2022-10-16T00:18:33;5.30;;;3.03;;
4307;SDS011;2167;53.448;9.984;2022-10-16T00:21:09;3.73;;;2.37;;
4307;SDS011;2167;53.448;9.984;2022-10-16T00:23:36;1.90;;;1.70;;
4307;SDS011;2167;53.448;9.984;2022-10-16T00:26:04;3.20;;;2.60;;
4307;SDS011;2167;53.448;9.984;2022-10-16T00:28:30;3.67;;;2.03;;
4307;SDS011;2167;53.448;9.984;2022-10-16T00:30:57;2.97;;;2.57;;
4307;SDS011;2167;53.448;9.984;2022-10-16T00:33:23;3.93;;;1.90;;
4307;SDS011;2167;53.448;9.984;2022-10-16T00:35:49;2.30;;;2.10;;
4307;SDS011;2167;53.448;9.984;2022-10-16T00:38:15;5.00;;;2.50;;
4307;SDS011;2167;53.448;9.984;2022-10-16T00:40:41;3.70;;;2.40;;
4307;SDS011;2167;53.448;9.984;2022-10-16T00:43:31;10.33;;;2.93;;
4307;SDS011;2167;53.448;9.984;2022-10-16T00:45:58;3.30;;;2.47;;
4307;SDS011;2167;53.448;9.984;2022-10-16T00:48:24;2.60;;;2.07;;
4307;SDS011;2167;53.448;9.984;2022-10-16T00:50:50;2.80;;;2.50;;
4307;SDS011;2167;53.448;9.984;2022-10-16T00:53:16;4.30;;;2.77;;
4307;SDS011;2167;53.448;9.984;2022-10-16T00:55:43;3.50;;;2.47;;
4307;SDS011;2167;53.448;9.984;2022-10-16T00:58:09;6.63;;;2.63;;
4307;SDS011;2167;53.448;9.984;2022-10-16T01:00:35;5.20;;;3.00;;
4307;SDS011;2167;53.448;9.984;2022-10-16T01:03:02;5.33;;;3.37;;
4307;SDS011;2167;53.448;9.984;2022-10-16T01:05:50;2.90;;;2.60;;
4307;SDS011;2167;53.448;9.984;2022-10-16T01:08:34;7.30;;;3.37;;
4307;SDS011;2167;53.448;9.984;2022-10-16T01:11:09;5.20;;;3.40;;
4307;SDS011;2167;53.448;9.984;2022-10-16T01:13:41;4.60;;;2.90;;
4307;SDS011;2167;53.448;9.984;2022-10-16T01:16:15;4.83;;;3.87;;
4307;SDS011;2167;53.448;9.984;2022-10-16T01:18:44;6.83;;;2.50;;
4307;SDS011;2167;53.448;9.984;2022-10-16T01:21:33;5.03;;;2.83;;
4307;SDS011;2167;53.448;9.984;2022-10-16T01:29:03;3.70;;;2.73;;
4307;SDS011;2167;53.448;9.984;2022-10-16T01:31:32;5.10;;;2.77;;
4307;SDS011;2167;53.448;9.984;2022-10-16T01:34:18;2.97;;;2.53;;
4307;SDS011;2167;53.448;9.984;2022-10-16T01:37:05;9.57;;;2.83;;
4307;SDS011;2167;53.448;9.984;2022-10-16T01:39:34;3.97;;;2.50;;
4307;SDS011;2167;53.448;9.984;2022-10-16T01:42:03;3.90;;;2.43;;
4307;SDS011;2167;53.448;9.984;2022-10-16T01:44:31;3.37;;;2.87;;
4307;SDS011;2167;53.448;9.984;2022-10-16T01:46:58;3.43;;;1.90;;
4307;SDS011;2167;53.448;9.984;2022-10-16T01:49:25;4.40;;;2.37;;
4307;SDS011;2167;53.448;9.984;2022-10-16T01:51:54;3.27;;;2.60;;
4307;SDS011;2167;53.448;9.984;2022-10-16T01:54:21;5.10;;;2.17;;
4307;SDS011;2167;53.448;9.984;2022-10-16T01:56:49;2.50;;;1.90;;
4307;SDS011;2167;53.448;9.984;2022-10-16T01:59:16;4.33;;;1.50;;
4307;SDS011;2167;53.448;9.984;2022-10-16T02:01:45;3.80;;;2.10;;
4307;SDS011;2167;53.448;9.984;2022-10-16T02:04:19;2.10;;;1.67;;
4307;SDS011;2167;53.448;9.984;2022-10-16T02:06:46;2.63;;;1.83;;
4307;SDS011;2167;53.448;9.984;2022-10-16T02:09:12;3.93;;;2.53;;
4307;SDS011;2167;53.448;9.984;2022-10-16T02:11:40;2.83;;;2.00;;
4307;SDS011;2167;53.448;9.984;2022-10-16T02:14:06;3.23;;;2.37;;
4307;SDS011;2167;53.448;9.984;2022-10-16T02:16:37;2.00;;;1.70;;
4307;SDS011;2167;53.448;9.984;2022-10-16T02:19:04;4.10;;;1.80;;
4307;SDS011;2167;53.448;9.984;2022-10-16T02:26:52;1.57;;;1.47;;
4307;SDS011;2167;53.448;9.984;2022-10-16T02:29:21;2.27;;;1.50;;
4307;SDS011;2167;53.448;9.984;2022-10-16T02:31:49;3.10;;;1.70;;
4307;SDS011;2167;53.448;9.984;2022-10-16T02:34:16;1.63;;;1.30;;
4307;SDS011;2167;53.448;9.984;2022-10-16T02:36:43;1.20;;;1.00;;
4307;SDS011;2167;53.448;9.984;2022-10-16T02:39:10;4.80;;;1.37;;
4307;SDS011;2167;53.448;9.984;2022-10-16T02:41:36;1.00;;;0.87;;
4307;SDS011;2167;53.448;9.984;2022-10-16T02:44:02;3.90;;;1.40;;
4307;SDS011;2167;53.448;9.984;2022-10-16T02:46:28;1.77;;;1.60;;
4307;SDS011;2167;53.448;9.984;2022-10-16T02:48:54;1.50;;;1.40;;
4307;SDS011;2167;53.448;9.984;2022-10-16T02:51:20;3.30;;;1.10;;
4307;SDS011;2167;53.448;9.984;2022-10-16T02:53:46;1.60;;;1.47;;
4307;SDS011;2167;53.448;9.984;2022-10-16T02:56:12;8.13;;;1.50;;
4307;SDS011;2167;53.448;9.984;2022-10-16T02:58:38;1.00;;;1.00;;
4307;SDS011;2167;53.448;9.984;2022-10-16T03:01:04;2.57;;;1.13;;
4307;SDS011;2167;53.448;9.984;2022-10-16T03:03:30;1.33;;;1.23;;
4307;SDS011;2167;53.448;9.984;2022-10-16T03:05:56;2.13;;;1.30;;
4307;SDS011;2167;53.448;9.984;2022-10-16T03:08:22;1.90;;;1.57;;
4307;SDS011;2167;53.448;9.984;2022-10-16T03:10:50;4.00;;;1.77;;
4307;SDS011;2167;53.448;9.984;2022-10-16T03:13:16;1.43;;;1.10;;
4307;SDS011;2167;53.448;9.984;2022-10-16T03:15:43;1.17;;;0.83;;
4307;SDS011;2167;53.448;9.984;2022-10-16T03:18:09;3.50;;;1.60;;
4307;SDS011;2167;53.448;9.984;2022-10-16T03:20:35;2.73;;;1.40;;
4307;SDS011;2167;53.448;9.984;2022-10-16T03:23:01;3.40;;;1.60;;
4307;SDS011;2167;53.448;9.984;2022-10-16T03:25:27;2.23;;;0.80;;
4307;SDS011;2167;53.448;9.984;2022-10-16T03:27:53;1.33;;;1.23;;
4307;SDS011;2167;53.448;9.984;2022-10-16T03:30:19;2.13;;;1.23;;
4307;SDS011;2167;53.448;9.984;2022-10-16T03:32:45;1.57;;;1.03;;
4307;SDS011;2167;53.448;9.984;2022-10-16T03:35:12;1.27;;;1.17;;
4307;SDS011;2167;53.448;9.984;2022-10-16T03:37:38;2.20;;;1.37;;
4307;SDS011;2167;53.448;9.984;2022-10-16T03:40:04;2.10;;;1.30;;
4307;SDS011;2167;53.448;9.984;2022-10-16T03:42:30;4.50;;;1.57;;
4307;SDS011;2167;53.448;9.984;2022-10-16T03:44:56;2.50;;;1.33;;
4307;SDS011;2167;53.448;9.984;2022-10-16T03:47:22;2.97;;;2.20;;
4307;SDS011;2167;53.448;9.984;2022-10-16T03:49:48;5.70;;;1.50;;
4307;SDS011;2167;53.448;9.984;2022-10-16T03:52:14;2.40;;;1.67;;
4307;SDS011;2167;53.448;9.984;2022-10-16T03:54:40;4.73;;;1.20;;
4307;SDS011;2167;53.448;9.984;2022-10-16T03:57:06;1.53;;;1.23;;
4307;SDS011;2167;53.448;9.984;2022-10-16T03:59:32;3.00;;;1.40;;
4307;SDS011;2167;53.448;9.984;2022-10-16T04:01:59;1.13;;;1.07;;
4307;SDS011;2167;53.448;9.984;2022-10-16T04:04:25;14.57;;;1.97;;
4307;SDS011;2167;53.448;9.984;2022-10-16T04:06:51;2.70;;;1.30;;
4307;SDS011;2167;53.448;9.984;2022-10-16T04:09:17;2.57;;;1.37;;
4307;SDS011;2167;53.448;9.984;2022-10-16T04:11:42;4.23;;;1.30;;
4307;SDS011;2167;53.448;9.984;2022-10-16T04:14:08;2.40;;;1.60;;
4307;SDS011;2167;53.448;9.984;2022-10-16T04:16:34;1.70;;;1.17;;
4307;SDS011;2167;53.448;9.984;2022-10-16T04:19:01;1.20;;;1.10;;
4307;SDS011;2167;53.448;9.984;2022-10-16T04:21:27;2.13;;;1.43;;
4307;SDS011;2167;53.448;9.984;2022-10-16T04:23:53;2.30;;;1.10;;
4307;SDS011;2167;53.448;9.984;2022-10-16T04:26:19;1.47;;;1.00;;
4307;SDS011;2167;53.448;9.984;2022-10-16T04:28:45;4.60;;;1.40;;
4307;SDS011;2167;53.448;9.984;2022-10-16T04:31:11;3.13;;;1.63;;
4307;SDS011;2167;53.448;9.984;2022-10-16T04:33:37;1.60;;;1.00;;
4307;SDS011;2167;53.448;9.984;2022-10-16T04:36:03;2.17;;;1.37;;
4307;SDS011;2167;53.448;9.984;2022-10-16T04:38:29;10.83;;;1.80;;
4307;SDS011;2167;53.448;9.984;2022-10-16T04:40:55;3.57;;;1.67;;
4307;SDS011;2167;53.448;9.984;2022-10-16T04:43:22;1.27;;;0.80;;
4307;SDS011;2167;53.448;9.984;2022-10-16T04:45:48;2.37;;;1.37;;
4307;SDS011;2167;53.448;9.984;2022-10-16T04:48:15;1.67;;;1.23;;
4307;SDS011;2167;53.448;9.984;2022-10-16T04:50:41;3.10;;;1.23;;
4307;SDS011;2167;53.448;9.984;2022-10-16T04:53:07;7.80;;;1.50;;
4307;SDS011;2167;53.448;9.984;2022-10-16T04:55:33;1.80;;;1.27;;
4307;SDS011;2167;53.448;9.984;2022-10-16T04:57:59;2.50;;;1.30;;
4307;SDS011;2167;53.448;9.984;2022-10-16T05:00:25;2.83;;;1.63;;
4307;SDS011;2167;53.448;9.984;2022-10-16T05:02:51;1.60;;;1.10;;
4307;SDS011;2167;53.448;9.984;2022-10-16T05:05:17;3.67;;;1.87;;
4307;SDS011;2167;53.448;9.984;2022-10-16T05:07:47;2.90;;;1.53;;
4307;SDS011;2167;53.448;9.984;2022-10-16T05:10:14;1.50;;;1.40;;
4307;SDS011;2167;53.448;9.984;2022-10-16T05:12:40;2.63;;;1.80;;
4307;SDS011;2167;53.448;9.984;2022-10-16T05:15:06;3.33;;;1.57;;
4307;SDS011;2167;53.448;9.984;2022-10-16T05:17:32;4.70;;;2.10;;
4307;SDS011;2167;53.448;9.984;2022-10-16T05:19:58;2.80;;;1.50;;
4307;SDS011;2167;53.448;9.984;2022-10-16T05:22:24;2.83;;;1.20;;
4307;SDS011;2167;53.448;9.984;2022-10-16T05:24:50;1.40;;;1.27;;
4307;SDS011;2167;53.448;9.984;2022-10-16T05:27:16;4.30;;;1.60;;
4307;SDS011;2167;53.448;9.984;2022-10-16T05:29:46;1.63;;;1.53;;
4307;SDS011;2167;53.448;9.984;2022-10-16T05:32:12;6.13;;;1.73;;
4307;SDS011;2167;53.448;9.984;2022-10-16T05:34:39;2.73;;;1.60;;
4307;SDS011;2167;53.448;9.984;2022-10-16T05:37:05;5.20;;;1.60;;
4307;SDS011;2167;53.448;9.984;2022-10-16T05:39:31;4.83;;;2.10;;
4307;SDS011;2167;53.448;9.984;2022-10-16T05:41:57;1.43;;;1.07;;
4307;SDS011;2167;53.448;9.984;2022-10-16T05:44:23;2.37;;;1.53;;
4307;SDS011;2167;53.448;9.984;2022-10-16T05:46:49;2.93;;;1.60;;
4307;SDS011;2167;53.448;9.984;2022-10-16T05:49:15;3.17;;;1.47;;
4307;SDS011;2167;53.448;9.984;2022-10-16T05:51:41;3.50;;;1.53;;
4307;SDS011;2167;53.448;9.984;2022-10-16T05:54:07;4.30;;;1.57;;
4307;SDS011;2167;53.448;9.984;2022-10-16T05:56:33;4.13;;;1.83;;
4307;SDS011;2167;53.448;9.984;2022-10-16T05:58:59;2.30;;;1.70;;
4307;SDS011;2167;53.448;9.984;2022-10-16T06:01:25;5.30;;;1.70;;
4307;SDS011;2167;53.448;9.984;2022-10-16T06:03:51;3.50;;;1.63;;
4307;SDS011;2167;53.448;9.984;2022-10-16T06:06:19;4.33;;;2.37;;
4307;SDS011;2167;53.448;9.984;2022-10-16T06:08:46;5.77;;;1.73;;
4307;SDS011;2167;53.448;9.984;2022-10-16T06:11:17;3.80;;;1.80;;
4307;SDS011;2167;53.448;9.984;2022-10-16T06:13:43;2.20;;;1.60;;
4307;SDS011;2167;53.448;9.984;2022-10-16T06:16:11;2.70;;;1.73;;
4307;SDS011;2167;53.448;9.984;2022-10-16T06:18:37;1.97;;;1.60;;
4307;SDS011;2167;53.448;9.984;2022-10-16T06:21:07;4.43;;;2.13;;
4307;SDS011;2167;53.448;9.984;2022-10-16T06:23:34;2.00;;;1.80;;
4307;SDS011;2167;53.448;9.984;2022-10-16T06:26:04;5.33;;;1.80;;
4307;SDS011;2167;53.448;9.984;2022-10-16T06:28:30;2.30;;;1.80;;
4307;SDS011;2167;53.448;9.984;2022-10-16T06:30:59;3.63;;;1.57;;
4307;SDS011;2167;53.448;9.984;2022-10-16T06:33:26;2.23;;;1.70;;
4307;SDS011;2167;53.448;9.984;2022-10-16T06:35:52;5.53;;;2.10;;
4307;SDS011;2167;53.448;9.984;2022-10-16T06:38:18;2.73;;;2.50;;
4307;SDS011;2167;53.448;9.984;2022-10-16T06:40:43;3.07;;;2.20;;
4307;SDS011;2167;53.448;9.984;2022-10-16T06:43:10;3.10;;;2.30;;
4307;SDS011;2167;53.448;9.984;2022-10-16T06:45:36;3.57;;;2.60;;
4307;SDS011;2167;53.448;9.984;2022-10-16T06:48:02;4.83;;;2.80;;
4307;SDS011;2167;53.448;9.984;2022-10-16T06:50:27;7.20;;;1.87;;
4307;SDS011;2167;53.448;9.984;2022-10-16T06:52:53;5.20;;;2.33;;
4307;SDS011;2167;53.448;9.984;2022-10-16T06:55:19;5.00;;;2.10;;
4307;SDS011;2167;53.448;9.984;2022-10-16T06:57:48;4.40;;;2.60;;
4307;SDS011;2167;53.448;9.984;2022-10-16T07:00:14;4.00;;;2.37;;
4307;SDS011;2167;53.448;9.984;2022-10-16T07:02:41;4.00;;;2.07;;
4307;SDS011;2167;53.448;9.984;2022-10-16T07:05:07;1.70;;;1.60;;
4307;SDS011;2167;53.448;9.984;2022-10-16T07:07:33;4.37;;;3.00;;
4307;SDS011;2167;53.448;9.984;2022-10-16T07:09:59;3.73;;;2.30;;
4307;SDS011;2167;53.448;9.984;2022-10-16T07:12:25;3.07;;;2.40;;
4307;SDS011;2167;53.448;9.984;2022-10-16T07:14:51;6.63;;;2.10;;
4307;SDS011;2167;53.448;9.984;2022-10-16T07:17:17;2.30;;;2.10;;
4307;SDS011;2167;53.448;9.984;2022-10-16T07:19:44;4.27;;;2.13;;
4307;SDS011;2167;53.448;9.984;2022-10-16T07:22:10;2.47;;;2.27;;
4307;SDS011;2167;53.448;9.984;2022-10-16T07:24:36;5.10;;;2.50;;
4307;SDS011;2167;53.448;9.984;2022-10-16T07:27:02;3.60;;;2.07;;
4307;SDS011;2167;53.448;9.984;2022-10-16T07:29:28;5.73;;;2.93;;
4307;SDS011;2167;53.448;9.984;2022-10-16T07:31:54;2.97;;;2.47;;
4307;SDS011;2167;53.448;9.984;2022-10-16T07:34:20;7.93;;;2.60;;
4307;SDS011;2167;53.448;9.984;2022-10-16T07:36:49;4.63;;;2.00;;
4307;SDS011;2167;53.448;9.984;2022-10-16T07:39:16;2.67;;;2.47;;
4307;SDS011;2167;53.448;9.984;2022-10-16T07:41:42;2.47;;;1.83;;
4307;SDS011;2167;53.448;9.984;2022-10-16T07:44:08;3.20;;;2.20;;
4307;SDS011;2167;53.448;9.984;2022-10-16T07:46:34;3.97;;;2.40;;
4307;SDS011;2167;53.448;9.984;2022-10-16T07:49:01;4.47;;;2.33;;
4307;SDS011;2167;53.448;9.984;2022-10-16T07:51:27;4.10;;;2.28;;
4307;SDS011;2167;53.448;9.984;2022-10-16T07:53:53;2.90;;;2.10;;
4307;SDS011;2167;53.448;9.984;2022-10-16T07:56:19;2.37;;;1.70;;
4307;SDS011;2167;53.448;9.984;2022-10-16T07:58:45;3.20;;;1.73;;
4307;SDS011;2167;53.448;9.984;2022-10-16T08:01:12;2.50;;;1.60;;
4307;SDS011;2167;53.448;9.984;2022-10-16T08:03:42;3.90;;;2.00;;
4307;SDS011;2167;53.448;9.984;2022-10-16T08:06:08;4.47;;;2.30;;
4307;SDS011;2167;53.448;9.984;2022-10-16T08:08:35;11.17;;;2.70;;
4307;SDS011;2167;53.448;9.984;2022-10-16T08:11:01;3.00;;;1.97;;
4307;SDS011;2167;53.448;9.984;2022-10-16T08:13:29;3.90;;;2.20;;
4307;SDS011;2167;53.448;9.984;2022-10-16T08:15:55;2.70;;;1.63;;
4307;SDS011;2167;53.448;9.984;2022-10-16T08:18:21;2.03;;;1.83;;
4307;SDS011;2167;53.448;9.984;2022-10-16T08:20:47;4.40;;;1.70;;
4307;SDS011;2167;53.448;9.984;2022-10-16T08:23:13;1.43;;;1.30;;
4307;SDS011;2167;53.448;9.984;2022-10-16T08:25:40;2.20;;;1.87;;
4307;SDS011;2167;53.448;9.984;2022-10-16T08:28:07;1.90;;;1.40;;
4307;SDS011;2167;53.448;9.984;2022-10-16T08:30:33;7.00;;;2.10;;
4307;SDS011;2167;53.448;9.984;2022-10-16T08:32:59;2.03;;;1.50;;
4307;SDS011;2167;53.448;9.984;2022-10-16T08:35:25;3.30;;;2.57;;
4307;SDS011;2167;53.448;9.984;2022-10-16T08:37:51;2.97;;;1.60;;
4307;SDS011;2167;53.448;9.984;2022-10-16T08:40:22;2.83;;;1.83;;
4307;SDS011;2167;53.448;9.984;2022-10-16T08:42:53;1.73;;;1.43;;
4307;SDS011;2167;53.448;9.984;2022-10-16T08:45:25;2.10;;;1.73;;
4307;SDS011;2167;53.448;9.984;2022-10-16T08:48:04;6.50;;;2.07;;
4307;SDS011;2167;53.448;9.984;2022-10-16T08:50:32;3.70;;;2.03;;
4307;SDS011;2167;53.448;9.984;2022-10-16T08:52:58;4.00;;;1.60;;
4307;SDS011;2167;53.448;9.984;2022-10-16T08:57:53;4.17;;;1.63;;
4307;SDS011;2167;53.448;9.984;2022-10-16T09:00:19;4.07;;;2.37;;
4307;SDS011;2167;53.448;9.984;2022-10-16T09:02:51;1.90;;;1.40;;
4307;SDS011;2167;53.448;9.984;2022-10-16T09:05:23;4.80;;;1.50;;
4307;SDS011;2167;53.448;9.984;2022-10-16T09:10:38;5.50;;;1.70;;
4307;SDS011;2167;53.448;9.984;2022-10-16T09:15:49;1.83;;;1.73;;
4307;SDS011;2167;53.448;9.984;2022-10-16T09:20:59;2.70;;;1.80;;
4307;SDS011;2167;53.448;9.984;2022-10-16T09:23:28;3.50;;;1.37;;
4307;SDS011;2167;53.448;9.984;2022-10-16T09:25:55;4.30;;;1.30;;
4307;SDS011;2167;53.448;9.984;2022-10-16T09:28:21;2.20;;;1.60;;
4307;SDS011;2167;53.448;9.984;2022-10-16T09:30:47;4.87;;;1.30;;
4307;SDS011;2167;53.448;9.984;2022-10-16T09:33:14;9.93;;;1.50;;
4307;SDS011;2167;53.448;9.984;2022-10-16T09:36:14;5.10;;;1.43;;
4307;SDS011;2167;53.448;9.984;2022-10-16T09:38:34;1.57;;;1.20;;
4307;SDS011;2167;53.448;9.984;2022-10-16T09:41:02;3.87;;;1.07;;
4307;SDS011;2167;53.448;9.984;2022-10-16T09:43:51;2.47;;;1.10;;
4307;SDS011;2167;53.448;9.984;2022-10-16T09:49:23;2.87;;;1.00;;
4307;SDS011;2167;53.448;9.984;2022-10-16T09:51:50;2.63;;;1.10;;
4307;SDS011;2167;53.448;9.984;2022-10-16T09:54:17;2.40;;;1.00;;
4307;SDS011;2167;53.448;9.984;2022-10-16T09:56:44;2.63;;;1.40;;
4307;SDS011;2167;53.448;9.984;2022-10-16T09:59:21;1.70;;;0.93;;
4307;SDS011;2167;53.448;9.984;2022-10-16T10:01:52;3.50;;;1.10;;
4307;SDS011;2167;53.448;9.984;2022-10-16T10:04:20;1.10;;;1.00;;
4307;SDS011;2167;53.448;9.984;2022-10-16T10:06:53;1.37;;;0.90;;
4307;SDS011;2167;53.448;9.984;2022-10-16T10:09:21;2.77;;;0.90;;
4307;SDS011;2167;53.448;9.984;2022-10-16T10:11:52;0.87;;;0.83;;
4307;SDS011;2167;53.448;9.984;2022-10-16T10:16:44;1.00;;;0.60;;
4307;SDS011;2167;53.448;9.984;2022-10-16T10:19:17;2.53;;;1.20;;
4307;SDS011;2167;53.448;9.984;2022-10-16T10:21:44;1.03;;;1.00;;
4307;SDS011;2167;53.448;9.984;2022-10-16T10:24:14;1.27;;;1.00;;
4307;SDS011;2167;53.448;9.984;2022-10-16T10:29:58;2.43;;;1.20;;
4307;SDS011;2167;53.448;9.984;2022-10-16T10:35:32;3.07;;;1.23;;
4307;SDS011;2167;53.448;9.984;2022-10-16T10:38:16;2.10;;;0.93;;
4307;SDS011;2167;53.448;9.984;2022-10-16T10:40:55;0.80;;;0.63;;
4307;SDS011;2167;53.448;9.984;2022-10-16T10:45:58;1.80;;;0.63;;
4307;SDS011;2167;53.448;9.984;2022-10-16T10:51:04;4.38;;;0.70;;
4307;SDS011;2167;53.448;9.984;2022-10-16T10:53:44;1.40;;;0.90;;
4307;SDS011;2167;53.448;9.984;2022-10-16T11:01:59;2.20;;;1.40;;
4307;SDS011;2167;53.448;9.984;2022-10-16T11:07:17;2.17;;;0.80;;
4307;SDS011;2167;53.448;9.984;2022-10-16T11:09:47;1.80;;;0.90;;
4307;SDS011;2167;53.448;9.984;2022-10-16T11:17:18;2.97;;;0.60;;
4307;SDS011;2167;53.448;9.984;2022-10-16T11:20:05;0.60;;;0.60;;
4307;SDS011;2167;53.448;9.984;2022-10-16T11:22:48;2.67;;;1.30;;
4307;SDS011;2167;53.448;9.984;2022-10-16T11:25:16;3.77;;;1.03;;
4307;SDS011;2167;53.448;9.984;2022-10-16T11:30:29;1.70;;;0.70;;
4307;SDS011;2167;53.448;9.984;2022-10-16T11:35:44;1.55;;;0.80;;
4307;SDS011;2167;53.448;9.984;2022-10-16T11:40:56;1.77;;;0.70;;
4307;SDS011;2167;53.448;9.984;2022-10-16T11:43:28;1.03;;;0.57;;
4307;SDS011;2167;53.448;9.984;2022-10-16T11:45:57;2.03;;;1.50;;
4307;SDS011;2167;53.448;9.984;2022-10-16T11:48:30;1.80;;;0.70;;
4307;SDS011;2167;53.448;9.984;2022-10-16T11:51:19;4.23;;;0.80;;
4307;SDS011;2167;53.448;9.984;2022-10-16T11:54:01;0.60;;;0.60;;
4307;SDS011;2167;53.448;9.984;2022-10-16T11:56:30;3.30;;;1.20;;
4307;SDS011;2167;53.448;9.984;2022-10-16T11:59:10;0.60;;;0.60;;
4307;SDS011;2167;53.448;9.984;2022-10-16T12:01:49;0.80;;;0.70;;
4307;SDS011;2167;53.448;9.984;2022-10-16T12:06:48;1.70;;;0.70;;
4307;SDS011;2167;53.448;9.984;2022-10-16T12:09:21;4.37;;;1.27;;
4307;SDS011;2167;53.448;9.984;2022-10-16T12:11:48;0.90;;;0.80;;
4307;SDS011;2167;53.448;9.984;2022-10-16T12:19:18;2.33;;;0.90;;
4307;SDS011;2167;53.448;9.984;2022-10-16T12:21:45;0.70;;;0.70;;
4307;SDS011;2167;53.448;9.984;2022-10-16T12:24:20;3.58;;;1.20;;
4307;SDS011;2167;53.448;9.984;2022-10-16T12:26:47;0.80;;;0.70;;
4307;SDS011;2167;53.448;9.984;2022-10-16T12:31:46;1.40;;;0.87;;
4307;SDS011;2167;53.448;9.984;2022-10-16T12:37:53;2.60;;;1.00;;
4307;SDS011;2167;53.448;9.984;2022-10-16T12:39:55;1.37;;;0.60;;
4307;SDS011;2167;53.448;9.984;2022-10-16T12:44:51;2.10;;;0.70;;
4307;SDS011;2167;53.448;9.984;2022-10-16T12:47:22;0.57;;;0.57;;
4307;SDS011;2167;53.448;9.984;2022-10-16T12:49:49;1.03;;;0.73;;
4307;SDS011;2167;53.448;9.984;2022-10-16T12:52:34;4.23;;;1.20;;
4307;SDS011;2167;53.448;9.984;2022-10-16T12:55:00;1.07;;;0.80;;
4307;SDS011;2167;53.448;9.984;2022-10-16T13:05:27;1.60;;;0.80;;
4307;SDS011;2167;53.448;9.984;2022-10-16T13:10:36;1.37;;;0.80;;
4307;SDS011;2167;53.448;9.984;2022-10-16T13:18:54;6.33;;;1.20;;
4307;SDS011;2167;53.448;9.984;2022-10-16T13:21:17;1.50;;;0.90;;
4307;SDS011;2167;53.448;9.984;2022-10-16T13:26:25;8.83;;;0.97;;
4307;SDS011;2167;53.448;9.984;2022-10-16T13:28:53;3.63;;;1.00;;
4307;SDS011;2167;53.448;9.984;2022-10-16T13:31:20;3.00;;;0.90;;
4307;SDS011;2167;53.448;9.984;2022-10-16T13:33:48;4.60;;;1.10;;
4307;SDS011;2167;53.448;9.984;2022-10-16T13:36:21;1.53;;;1.20;;
4307;SDS011;2167;53.448;9.984;2022-10-16T13:38:48;4.97;;;1.07;;
4307;SDS011;2167;53.448;9.984;2022-10-16T13:41:15;1.80;;;1.10;;
4307;SDS011;2167;53.448;9.984;2022-10-16T13:43:43;1.63;;;0.93;;
4307;SDS011;2167;53.448;9.984;2022-10-16T13:46:17;1.10;;;1.00;;
4307;SDS011;2167;53.448;9.984;2022-10-16T13:48:44;2.77;;;1.00;;
4307;SDS011;2167;53.448;9.984;2022-10-16T13:51:15;7.43;;;1.37;;
4307;SDS011;2167;53.448;9.984;2022-10-16T13:53:41;1.47;;;1.00;;
4307;SDS011;2167;53.448;9.984;2022-10-16T13:56:10;1.90;;;1.00;;
4307;SDS011;2167;53.448;9.984;2022-10-16T13:58:36;1.17;;;1.00;;
4307;SDS011;2167;53.448;9.984;2022-10-16T14:01:06;1.30;;;1.20;;
4307;SDS011;2167;53.448;9.984;2022-10-16T14:03:39;3.90;;;0.90;;
4307;SDS011;2167;53.448;9.984;2022-10-16T14:06:06;2.23;;;1.20;;
4307;SDS011;2167;53.448;9.984;2022-10-16T14:08:37;2.95;;;1.20;;
4307;SDS011;2167;53.448;9.984;2022-10-16T14:11:06;2.80;;;1.00;;
4307;SDS011;2167;53.448;9.984;2022-10-16T14:13:37;2.67;;;1.10;;
4307;SDS011;2167;53.448;9.984;2022-10-16T14:16:07;5.70;;;2.70;;
4307;SDS011;2167;53.448;9.984;2022-10-16T14:18:34;6.77;;;1.50;;
4307;SDS011;2167;53.448;9.984;2022-10-16T14:21:04;1.00;;;0.90;;
4307;SDS011;2167;53.448;9.984;2022-10-16T14:23:32;2.53;;;0.80;;
4307;SDS011;2167;53.448;9.984;2022-10-16T14:26:11;2.00;;;0.87;;
4307;SDS011;2167;53.448;9.984;2022-10-16T14:28:38;2.17;;;1.00;;
4307;SDS011;2167;53.448;9.984;2022-10-16T14:31:24;8.20;;;1.40;;
4307;SDS011;2167;53.448;9.984;2022-10-16T14:33:51;4.07;;;1.10;;
4307;SDS011;2167;53.448;9.984;2022-10-16T14:36:17;0.90;;;0.70;;
4307;SDS011;2167;53.448;9.984;2022-10-16T14:39:26;5.00;;;1.10;;
4307;SDS011;2167;53.448;9.984;2022-10-16T14:41:43;2.90;;;0.80;;
4307;SDS011;2167;53.448;9.984;2022-10-16T14:44:09;1.10;;;0.80;;
4307;SDS011;2167;53.448;9.984;2022-10-16T14:46:36;2.00;;;1.23;;
4307;SDS011;2167;53.448;9.984;2022-10-16T14:49:04;2.10;;;0.80;;
4307;SDS011;2167;53.448;9.984;2022-10-16T14:51:39;2.60;;;0.73;;
4307;SDS011;2167;53.448;9.984;2022-10-16T14:54:10;2.83;;;1.17;;
4307;SDS011;2167;53.448;9.984;2022-10-16T14:56:57;1.50;;;0.80;;
4307;SDS011;2167;53.448;9.984;2022-10-16T14:59:30;1.17;;;0.87;;
4307;SDS011;2167;53.448;9.984;2022-10-16T15:01:57;2.60;;;1.10;;
4307;SDS011;2167;53.448;9.984;2022-10-16T15:04:23;4.73;;;1.03;;
4307;SDS011;2167;53.448;9.984;2022-10-16T15:06:50;2.87;;;0.87;;
4307;SDS011;2167;53.448;9.984;2022-10-16T15:09:16;2.60;;;0.50;;
4307;SDS011;2167;53.448;9.984;2022-10-16T15:11:42;1.83;;;0.80;;
4307;SDS011;2167;53.448;9.984;2022-10-16T15:14:11;4.10;;;0.90;;
4307;SDS011;2167;53.448;9.984;2022-10-16T15:16:37;2.10;;;1.03;;
4307;SDS011;2167;53.448;9.984;2022-10-16T15:19:03;14.43;;;1.17;;
4307;SDS011;2167;53.448;9.984;2022-10-16T15:21:30;2.97;;;1.47;;
4307;SDS011;2167;53.448;9.984;2022-10-16T15:23:57;1.97;;;1.00;;
4307;SDS011;2167;53.448;9.984;2022-10-16T15:26:27;0.70;;;0.70;;
4307;SDS011;2167;53.448;9.984;2022-10-16T15:29:12;1.07;;;0.97;;
4307;SDS011;2167;53.448;9.984;2022-10-16T15:31:38;3.53;;;1.20;;
4307;SDS011;2167;53.448;9.984;2022-10-16T15:34:08;5.00;;;1.23;;
4307;SDS011;2167;53.448;9.984;2022-10-16T15:36:35;1.00;;;0.63;;
4307;SDS011;2167;53.448;9.984;2022-10-16T15:39:05;2.00;;;0.90;;
4307;SDS011;2167;53.448;9.984;2022-10-16T15:41:34;1.20;;;0.90;;
4307;SDS011;2167;53.448;9.984;2022-10-16T15:44:00;0.93;;;0.80;;
4307;SDS011;2167;53.448;9.984;2022-10-16T15:46:26;3.33;;;0.80;;
4307;SDS011;2167;53.448;9.984;2022-10-16T15:48:55;1.90;;;0.97;;
4307;SDS011;2167;53.448;9.984;2022-10-16T15:51:21;1.90;;;0.70;;
4307;SDS011;2167;53.448;9.984;2022-10-16T15:53:47;1.93;;;1.03;;
4307;SDS011;2167;53.448;9.984;2022-10-16T15:56:15;5.53;;;1.20;;
4307;SDS011;2167;53.448;9.984;2022-10-16T15:58:41;1.50;;;1.40;;
4307;SDS011;2167;53.448;9.984;2022-10-16T16:01:08;2.80;;;1.20;;
4307;SDS011;2167;53.448;9.984;2022-10-16T16:03:35;2.63;;;1.30;;
4307;SDS011;2167;53.448;9.984;2022-10-16T16:06:05;3.90;;;1.10;;
4307;SDS011;2167;53.448;9.984;2022-10-16T16:08:32;2.43;;;1.70;;
4307;SDS011;2167;53.448;9.984;2022-10-16T16:10:59;2.97;;;1.33;;
4307;SDS011;2167;53.448;9.984;2022-10-16T16:13:25;2.23;;;1.20;;
4307;SDS011;2167;53.448;9.984;2022-10-16T16:15:51;1.70;;;1.50;;
4307;SDS011;2167;53.448;9.984;2022-10-16T16:18:17;5.00;;;1.83;;
4307;SDS011;2167;53.448;9.984;2022-10-16T16:20:43;2.67;;;1.80;;
4307;SDS011;2167;53.448;9.984;2022-10-16T16:23:09;1.83;;;1.70;;
4307;SDS011;2167;53.448;9.984;2022-10-16T16:25:35;4.47;;;1.67;;
4307;SDS011;2167;53.448;9.984;2022-10-16T16:28:01;3.23;;;1.57;;
4307;SDS011;2167;53.448;9.984;2022-10-16T16:30:27;2.93;;;2.20;;
4307;SDS011;2167;53.448;9.984;2022-10-16T16:32:53;4.23;;;1.60;;
4307;SDS011;2167;53.448;9.984;2022-10-16T16:35:19;2.83;;;1.73;;
4307;SDS011;2167;53.448;9.984;2022-10-16T16:37:46;2.17;;;1.50;;
4307;SDS011;2167;53.448;9.984;2022-10-16T16:40:12;3.90;;;1.80;;
4307;SDS011;2167;53.448;9.984;2022-10-16T16:42:38;4.30;;;1.70;;
4307;SDS011;2167;53.448;9.984;2022-10-16T16:45:04;3.20;;;1.70;;
4307;SDS011;2167;53.448;9.984;2022-10-16T16:47:31;4.43;;;2.30;;
4307;SDS011;2167;53.448;9.984;2022-10-16T16:49:57;7.00;;;2.77;;
4307;SDS011;2167;53.448;9.984;2022-10-16T16:52:23;2.93;;;1.93;;
4307;SDS011;2167;53.448;9.984;2022-10-16T16:54:49;3.90;;;2.87;;
4307;SDS011;2167;53.448;9.984;2022-10-16T16:57:18;2.43;;;2.23;;